createdAt,value
2019-01-18T00:02:00.680Z,2.47
2019-01-18T00:04:41.972Z,2.40
2019-01-18T00:07:19.085Z,2.13
2019-01-18T00:09:51.634Z,2.03
2019-01-18T00:12:35.550Z,2.33
2019-01-18T00:15:09.822Z,2.30
2019-01-18T00:17:51.095Z,2.23
2019-01-18T00:20:31.015Z,2.20
2019-01-18T00:23:06.285Z,2.47
2019-01-18T00:25:39.827Z,2.57
2019-01-18T00:28:16.059Z,2.60
2019-01-18T00:30:48.670Z,2.87
2019-01-18T00:33:24.339Z,2.50
2019-01-18T00:35:57.326Z,2.57
2019-01-18T00:38:32.144Z,2.53
2019-01-18T00:41:11.503Z,2.63
2019-01-18T00:43:45.302Z,2.50
2019-01-18T00:46:19.918Z,2.77
2019-01-18T00:48:53.160Z,2.37
2019-01-18T00:51:25.638Z,2.60
2019-01-18T00:53:56.369Z,2.70
2019-01-18T00:56:28.168Z,2.70
2019-01-18T00:59:01.268Z,2.77
2019-01-18T01:01:32.038Z,2.50
2019-01-18T01:04:02.880Z,2.80
2019-01-18T01:06:34.798Z,2.93
2019-01-18T01:09:14.082Z,2.00
2019-01-18T01:11:45.893Z,2.40
2019-01-18T01:14:18.108Z,2.20
2019-01-18T01:16:51.356Z,2.03
2019-01-18T01:19:23.674Z,2.17
2019-01-18T01:21:55.324Z,1.97
2019-01-18T01:24:27.007Z,2.23
2019-01-18T01:27:03.892Z,2.00
2019-01-18T01:29:42.916Z,2.10
2019-01-18T01:32:09.577Z,2.20
2019-01-18T01:34:45.026Z,2.17
2019-01-18T01:37:21.769Z,1.83
2019-01-18T01:39:54.783Z,2.10
2019-01-18T01:42:26.442Z,2.00
2019-01-18T01:45:01.303Z,2.30
2019-01-18T01:47:33.963Z,2.30
2019-01-18T01:50:05.883Z,2.20
2019-01-18T01:52:40.802Z,2.30
2019-01-18T01:55:12.564Z,2.30
2019-01-18T01:57:45.057Z,2.07
2019-01-18T02:00:22.357Z,1.87
2019-01-18T02:02:56.997Z,2.00
2019-01-18T02:05:30.531Z,2.10
2019-01-18T02:08:02.226Z,1.90
2019-01-18T02:10:49.391Z,2.63
2019-01-18T02:13:40.814Z,2.23
2019-01-18T02:16:18.878Z,2.23
2019-01-18T02:18:52.654Z,2.57
2019-01-18T02:21:26.149Z,2.70
2019-01-18T02:24:06.501Z,2.70
2019-01-18T02:26:32.744Z,2.43
2019-01-18T02:29:07.779Z,2.50
2019-01-18T02:31:40.158Z,3.03
2019-01-18T02:34:11.010Z,2.50
2019-01-18T02:36:44.475Z,2.90
2019-01-18T02:39:15.188Z,3.33
2019-01-18T02:41:45.912Z,3.20
2019-01-18T02:44:16.725Z,3.80
2019-01-18T02:46:47.482Z,3.90
2019-01-18T02:49:18.676Z,3.83
2019-01-18T02:51:49.461Z,3.63
2019-01-18T02:54:24.628Z,3.27
2019-01-18T02:57:00.704Z,2.60
2019-01-18T02:59:35.569Z,2.30
2019-01-18T03:02:07.142Z,2.67
2019-01-18T03:04:38.129Z,2.40
2019-01-18T03:07:13.571Z,2.37
2019-01-18T03:09:44.891Z,3.00
2019-01-18T03:12:20.369Z,2.80
2019-01-18T03:14:51.680Z,2.17
2019-01-18T03:17:28.172Z,2.37
2019-01-18T03:20:03.302Z,2.70
2019-01-18T03:22:35.491Z,2.23
2019-01-18T03:25:10.607Z,2.30
2019-01-18T03:27:45.025Z,2.60
2019-01-18T03:30:22.895Z,1.50
2019-01-18T03:32:53.851Z,1.00
2019-01-18T03:35:31.874Z,0.93
2019-01-18T03:38:05.478Z,1.00
2019-01-18T03:40:38.703Z,1.23
2019-01-18T03:43:10.630Z,1.30
2019-01-18T03:45:42.485Z,1.10
2019-01-18T03:48:17.677Z,1.07
2019-01-18T03:50:54.585Z,1.33
2019-01-18T03:53:26.448Z,1.30
2019-01-18T03:56:02.319Z,1.30
2019-01-18T03:58:34.310Z,1.40
2019-01-18T04:01:09.899Z,1.60
2019-01-18T04:03:42.502Z,1.80
2019-01-18T04:06:13.421Z,1.80
2019-01-18T04:08:57.262Z,1.80
2019-01-18T04:11:28.737Z,1.60
2019-01-18T04:14:00.394Z,1.67
2019-01-18T04:16:35.528Z,1.50
2019-01-18T04:19:06.347Z,1.70
2019-01-18T04:21:39.970Z,1.50
2019-01-18T04:24:17.384Z,1.60
2019-01-18T04:26:53.466Z,1.50
2019-01-18T04:29:24.181Z,1.63
2019-01-18T04:31:59.372Z,1.77
2019-01-18T04:34:31.533Z,2.10
2019-01-18T04:37:06.193Z,2.37
2019-01-18T04:39:40.475Z,2.30
2019-01-18T04:42:32.162Z,2.13
2019-01-18T04:45:05.293Z,2.63
2019-01-18T04:47:40.364Z,2.27
2019-01-18T04:50:16.991Z,2.30
2019-01-18T04:52:50.188Z,2.53
2019-01-18T04:55:29.358Z,2.60
2019-01-18T04:58:08.354Z,2.50
2019-01-18T05:00:41.053Z,2.93
2019-01-18T05:03:16.779Z,2.60
2019-01-18T05:05:47.398Z,2.80
2019-01-18T05:08:20.241Z,2.40
2019-01-18T05:10:52.305Z,3.03
2019-01-18T05:13:25.239Z,2.70
2019-01-18T05:15:56.801Z,2.60
2019-01-18T05:18:34.376Z,3.27
2019-01-18T05:21:05.835Z,2.80
2019-01-18T05:23:37.307Z,2.63
2019-01-18T05:26:09.753Z,3.20
2019-01-18T05:28:49.877Z,3.27
2019-01-18T05:31:23.508Z,2.87
2019-01-18T05:33:56.183Z,3.50
2019-01-18T05:36:29.542Z,3.93
2019-01-18T05:39:00.720Z,4.33
2019-01-18T05:41:33.205Z,4.47
2019-01-18T05:44:07.309Z,4.13
2019-01-18T05:46:39.615Z,4.03
2019-01-18T05:49:14.364Z,4.50
2019-01-18T05:51:48.070Z,4.80
2019-01-18T05:54:26.428Z,4.23
2019-01-18T05:56:57.371Z,4.30
2019-01-18T05:59:37.644Z,4.37
2019-01-18T06:02:08.905Z,5.27
2019-01-18T06:04:47.495Z,4.73
2019-01-18T06:07:18.967Z,4.70
2019-01-18T06:11:10.787Z,4.00
2019-01-18T06:12:35.968Z,4.70
2019-01-18T06:15:07.822Z,4.43
2019-01-18T06:17:44.396Z,4.27
2019-01-18T06:20:21.618Z,4.37
2019-01-18T06:22:55.498Z,3.80
2019-01-18T06:25:41.078Z,3.67
2019-01-18T06:28:09.977Z,3.80
2019-01-18T06:30:43.972Z,3.50
2019-01-18T06:33:15.124Z,4.20
2019-01-18T06:35:47.695Z,3.73
2019-01-18T06:38:20.069Z,3.20
2019-01-18T06:40:55.221Z,2.87
2019-01-18T06:43:31.775Z,3.47
2019-01-18T06:46:04.882Z,2.90
2019-01-18T06:48:37.585Z,3.13
2019-01-18T06:51:12.296Z,3.00
2019-01-18T06:53:46.600Z,3.13
2019-01-18T06:56:24.903Z,2.80
2019-01-18T06:59:03.633Z,3.10
2019-01-18T07:01:35.590Z,3.30
2019-01-18T07:04:08.276Z,2.90
2019-01-18T07:06:56.433Z,3.00
2019-01-18T07:09:32.068Z,2.67
2019-01-18T07:12:06.389Z,2.93
2019-01-18T07:14:54.638Z,2.90
2019-01-18T07:17:35.434Z,3.30
2019-01-18T07:20:11.668Z,3.03
2019-01-18T07:22:42.929Z,3.00
2019-01-18T07:25:30.429Z,3.20
2019-01-18T07:28:03.892Z,3.23
2019-01-18T07:30:43.365Z,3.93
2019-01-18T07:33:19.732Z,3.13
2019-01-18T07:35:50.881Z,3.67
2019-01-18T07:38:26.310Z,3.77
2019-01-18T07:40:57.188Z,3.40
2019-01-18T07:43:32.687Z,3.37
2019-01-18T07:46:10.215Z,3.80
2019-01-18T07:48:42.781Z,3.53
2019-01-18T07:51:20.786Z,3.70
2019-01-18T07:53:54.504Z,3.80
2019-01-18T07:56:27.081Z,4.50
2019-01-18T07:58:59.738Z,4.13
2019-01-18T08:01:32.468Z,3.60
2019-01-18T08:04:07.310Z,3.63
2019-01-18T08:06:42.129Z,3.87
2019-01-18T08:09:13.057Z,3.13
2019-01-18T08:14:48.397Z,3.53
2019-01-18T08:17:23.959Z,3.90
2019-01-18T08:19:59.425Z,3.70
2019-01-18T08:22:35.772Z,7.33
2019-01-18T08:25:08.150Z,4.80
2019-01-18T08:27:44.742Z,4.10
2019-01-18T08:30:24.725Z,2.87
2019-01-18T08:32:58.322Z,4.07
2019-01-18T08:35:31.953Z,4.20
2019-01-18T08:38:11.431Z,3.70
2019-01-18T08:40:47.589Z,2.80
2019-01-18T08:43:29.021Z,3.10
2019-01-18T08:46:05.490Z,2.73
2019-01-18T08:48:37.104Z,2.80
2019-01-18T08:51:14.633Z,3.23
2019-01-18T08:53:48.934Z,2.70
2019-01-18T08:56:32.935Z,2.70
2019-01-18T08:59:12.978Z,10.87
2019-01-18T09:01:41.744Z,3.20
2019-01-18T09:04:19.481Z,4.00
2019-01-18T09:06:56.037Z,2.57
2019-01-18T09:09:32.594Z,2.83
2019-01-18T09:12:12.588Z,3.03
2019-01-18T09:14:46.225Z,2.80
2019-01-18T09:17:30.994Z,2.47
2019-01-18T09:20:03.689Z,2.90
2019-01-18T09:22:35.870Z,3.03
2019-01-18T09:25:31.064Z,8.90
2019-01-18T09:28:14.260Z,5.20
2019-01-18T09:30:54.280Z,4.93
2019-01-18T09:33:24.130Z,4.03
2019-01-18T09:36:05.673Z,2.63
2019-01-18T09:38:36.478Z,3.60
2019-01-18T09:41:12.537Z,3.00
2019-01-18T09:43:48.824Z,2.47
2019-01-18T09:46:22.464Z,3.60
2019-01-18T09:49:07.550Z,2.67
2019-01-18T09:55:43.771Z,3.80
2019-01-18T09:58:24.790Z,4.07
2019-01-18T10:01:00.135Z,3.07
2019-01-18T10:03:56.001Z,3.47
2019-01-18T10:06:31.264Z,2.83
2019-01-18T10:09:22.132Z,2.97
2019-01-18T10:12:57.001Z,4.50
2019-01-18T10:15:47.057Z,2.73
2019-01-18T10:18:27.319Z,2.73
2019-01-18T10:21:10.877Z,3.37
2019-01-18T10:23:53.567Z,4.20
2019-01-18T10:26:50.306Z,5.80
2019-01-18T10:29:19.850Z,3.20
2019-01-18T10:31:56.173Z,2.90
2019-01-18T10:34:48.650Z,3.43
2019-01-18T10:37:22.468Z,3.23
2019-01-18T10:40:05.960Z,2.90
2019-01-18T10:42:36.289Z,3.00
2019-01-18T10:45:19.333Z,3.07
2019-01-18T10:48:00.584Z,3.20
2019-01-18T10:50:51.770Z,3.27
2019-01-18T10:53:22.537Z,2.80
2019-01-18T10:56:02.515Z,3.03
2019-01-18T10:58:33.824Z,3.47
2019-01-18T11:01:08.630Z,2.27
2019-01-18T11:03:42.954Z,2.70
2019-01-18T11:06:17.500Z,2.30
2019-01-18T11:08:54.652Z,2.07
2019-01-18T11:11:30.095Z,2.33
2019-01-18T11:14:04.502Z,2.60
2019-01-18T11:16:38.371Z,2.53
2019-01-18T11:19:13.764Z,2.63
2019-01-18T11:21:49.532Z,2.13
2019-01-18T11:24:28.940Z,2.83
2019-01-18T11:27:06.458Z,2.93
2019-01-18T11:29:39.513Z,2.30
2019-01-18T11:32:35.365Z,2.90
2019-01-18T11:35:18.559Z,3.00
2019-01-18T11:38:13.357Z,3.47
2019-01-18T11:40:45.563Z,2.93
2019-01-18T11:43:25.471Z,3.40
2019-01-18T11:46:02.726Z,3.00
2019-01-18T11:48:37.703Z,2.60
2019-01-18T11:51:11.078Z,2.40
2019-01-18T11:53:51.857Z,2.83
2019-01-18T11:56:35.378Z,2.40
2019-01-18T11:59:02.545Z,2.80
2019-01-18T12:04:36.612Z,4.03
2019-01-18T12:07:37.150Z,3.03
2019-01-18T12:10:21.546Z,2.93
2019-01-18T12:13:46.928Z,3.30
2019-01-18T12:16:08.581Z,3.40
2019-01-18T12:18:43.211Z,3.03
2019-01-18T12:21:16.971Z,3.13
2019-01-18T12:23:51.092Z,3.23
2019-01-18T12:26:22.448Z,2.73
2019-01-18T12:29:00.580Z,2.97
2019-01-18T12:31:35.503Z,2.70
2019-01-18T12:34:33.011Z,3.60
2019-01-18T12:37:26.908Z,2.70
2019-01-18T12:40:07.208Z,3.13
2019-01-18T12:42:42.625Z,3.30
2019-01-18T12:45:25.558Z,2.77
2019-01-18T12:47:57.613Z,2.70
2019-01-18T12:50:42.475Z,2.83
2019-01-18T12:54:23.541Z,2.70
2019-01-18T12:55:59.400Z,3.00
2019-01-18T12:58:37.300Z,2.90
2019-01-18T13:01:21.547Z,3.17
2019-01-18T13:04:12.781Z,2.50
2019-01-18T13:06:57.226Z,2.73
2019-01-18T13:14:17.136Z,2.40
2019-01-18T13:17:37.987Z,2.70
2019-01-18T13:23:51.379Z,1.90
2019-01-18T13:26:38.306Z,1.83
2019-01-18T13:29:09.296Z,2.30
2019-01-18T13:31:44.066Z,2.00
2019-01-18T13:34:16.902Z,2.07
2019-01-18T13:36:54.404Z,1.80
2019-01-18T13:39:30.299Z,1.70
2019-01-18T13:42:05.243Z,1.93
2019-01-18T13:44:43.637Z,2.00
2019-01-18T13:47:18.543Z,2.07
2019-01-18T13:49:51.354Z,1.93
2019-01-18T13:52:23.820Z,2.10
2019-01-18T13:54:57.817Z,2.23
2019-01-18T13:57:38.533Z,1.93
2019-01-18T14:00:19.988Z,2.10
2019-01-18T14:02:51.763Z,2.30
2019-01-18T14:05:31.524Z,2.10
2019-01-18T14:08:22.337Z,1.87
2019-01-18T14:10:59.202Z,2.20
2019-01-18T14:13:37.550Z,2.00
2019-01-18T14:16:11.223Z,2.40
2019-01-18T14:18:44.508Z,1.90
2019-01-18T14:21:15.789Z,2.00
2019-01-18T14:23:53.622Z,2.03
2019-01-18T14:26:25.172Z,2.17
2019-01-18T14:28:57.888Z,2.60
2019-01-18T14:31:34.552Z,2.17
2019-01-18T14:34:06.564Z,1.90
2019-01-18T14:36:39.278Z,2.23
2019-01-18T14:39:15.997Z,2.50
2019-01-18T14:41:48.793Z,2.53
2019-01-18T14:47:32.217Z,2.47
2019-01-18T14:50:27.412Z,2.47
2019-01-18T14:53:04.707Z,2.33
2019-01-18T14:55:42.297Z,2.03
2019-01-18T14:58:37.285Z,2.47
2019-01-18T15:00:47.695Z,2.47
2019-01-18T15:03:25.236Z,2.20
2019-01-18T15:05:53.303Z,2.53
2019-01-18T15:08:33.314Z,2.40
2019-01-18T15:11:07.321Z,2.43
2019-01-18T15:13:47.205Z,2.23
2019-01-18T15:16:35.161Z,2.20
2019-01-18T15:19:06.492Z,2.70
2019-01-18T15:21:37.900Z,2.70
2019-01-18T15:24:13.450Z,2.23
2019-01-18T15:26:44.467Z,2.40
2019-01-18T15:29:15.321Z,2.60
2019-01-18T15:31:47.747Z,2.33
2019-01-18T15:34:24.110Z,2.50
2019-01-18T15:37:00.815Z,2.93
2019-01-18T15:39:32.440Z,2.67
2019-01-18T15:42:08.138Z,2.57
2019-01-18T15:44:41.421Z,2.60
2019-01-18T15:47:14.402Z,3.27
2019-01-18T15:49:45.303Z,2.80
2019-01-18T15:52:16.442Z,2.90
2019-01-18T15:54:53.118Z,2.93
2019-01-18T15:57:26.778Z,2.00
2019-01-18T15:59:58.097Z,2.50
2019-01-18T16:02:35.811Z,2.50
2019-01-18T16:05:10.042Z,2.37
2019-01-18T16:07:46.608Z,2.70
2019-01-18T16:10:21.386Z,3.13
2019-01-18T16:13:15.320Z,2.90
2019-01-18T16:16:20.348Z,2.87
2019-01-18T16:19:01.527Z,3.33
2019-01-18T16:21:33.691Z,4.50
2019-01-18T16:24:05.696Z,5.17
2019-01-18T16:26:40.331Z,4.70
2019-01-18T16:29:13.063Z,3.80
2019-01-18T16:31:46.515Z,4.23
2019-01-18T16:34:17.353Z,3.27
2019-01-18T16:36:49.335Z,3.70
2019-01-18T16:39:24.544Z,4.30
2019-01-18T16:41:56.462Z,3.97
2019-01-18T16:44:31.663Z,4.97
2019-01-18T16:47:02.764Z,5.20
2019-01-18T16:49:33.667Z,5.07
2019-01-18T16:52:07.506Z,4.30
2019-01-18T16:54:41.206Z,4.77
2019-01-18T16:57:12.333Z,4.30
2019-01-18T16:59:45.800Z,4.37
2019-01-18T17:02:17.882Z,4.03
2019-01-18T17:04:48.613Z,3.60
2019-01-18T17:07:22.666Z,3.83
2019-01-18T17:09:53.459Z,4.13
2019-01-18T17:12:24.741Z,5.10
2019-01-18T17:14:55.513Z,4.10
2019-01-18T17:17:32.602Z,4.07
2019-01-18T17:20:03.310Z,3.93
2019-01-18T17:22:35.304Z,4.00
2019-01-18T17:25:08.494Z,4.50
2019-01-18T17:27:39.320Z,3.63
2019-01-18T17:30:16.777Z,4.53
2019-01-18T17:32:47.582Z,4.73
2019-01-18T17:35:44.600Z,3.97
2019-01-18T17:38:31.310Z,4.30
2019-01-18T17:41:19.182Z,4.70
2019-01-18T17:44:54.489Z,4.00
2019-01-18T17:47:51.344Z,3.47
2019-01-18T17:51:10.538Z,3.80
2019-01-18T17:54:13.278Z,3.70
2019-01-18T17:57:27.124Z,3.77
2019-01-18T18:00:54.794Z,3.80
2019-01-18T18:04:21.739Z,4.17
2019-01-18T18:08:10.102Z,3.93
2019-01-18T18:11:30.908Z,3.70
2019-01-18T18:14:33.183Z,3.10
2019-01-18T18:17:44.490Z,3.63
2019-01-18T18:21:07.155Z,3.93
2019-01-18T18:24:37.756Z,3.80
2019-01-18T18:28:14.764Z,7.40
2019-01-18T18:31:19.777Z,7.50
2019-01-18T18:34:52.927Z,6.23
2019-01-18T18:38:36.622Z,4.83
2019-01-18T18:42:04.028Z,5.73
2019-01-18T18:45:37.859Z,6.57
2019-01-18T18:49:04.253Z,4.83
2019-01-18T18:52:37.625Z,6.40
2019-01-18T18:56:14.487Z,9.70
2019-01-18T19:00:12.147Z,5.37
2019-01-18T19:03:43.387Z,4.30
2019-01-18T19:07:03.977Z,3.70
2019-01-18T19:10:50.065Z,4.00
2019-01-18T19:14:14.294Z,13.63
2019-01-18T19:17:39.681Z,6.00
2019-01-18T19:20:48.676Z,6.30
2019-01-18T19:24:48.749Z,5.80
2019-01-18T19:28:12.148Z,5.30
2019-01-18T19:31:44.867Z,5.10
2019-01-18T19:35:17.518Z,4.23
2019-01-18T19:38:47.948Z,4.50
2019-01-18T19:41:48.402Z,5.60
2019-01-18T19:45:52.069Z,5.73
2019-01-18T19:49:42.902Z,4.73
2019-01-18T19:54:14.073Z,4.83
2019-01-18T19:56:46.177Z,5.17
2019-01-18T20:00:32.779Z,7.33
2019-01-18T20:04:11.657Z,5.70
2019-01-18T20:07:44.020Z,5.10
2019-01-18T20:11:29.091Z,4.17
2019-01-18T20:14:51.651Z,4.47
2019-01-18T20:26:31.918Z,4.50
2019-01-18T20:30:25.075Z,5.10
2019-01-18T20:33:56.863Z,4.40
2019-01-18T20:37:53.167Z,3.70
2019-01-18T20:40:52.544Z,3.77
2019-01-18T20:44:20.804Z,4.67
2019-01-18T20:47:59.961Z,12.60
2019-01-18T20:51:09.382Z,5.00
2019-01-18T20:55:10.849Z,4.63
2019-01-18T20:58:18.311Z,3.90
2019-01-18T21:01:51.162Z,4.97
2019-01-18T21:05:33.825Z,4.50
2019-01-18T21:09:25.521Z,4.73
2019-01-18T21:12:44.404Z,5.83
2019-01-18T21:17:18.358Z,3.53
2019-01-18T21:21:21.056Z,4.37
2019-01-18T21:24:35.247Z,4.63
2019-01-18T21:27:52.379Z,4.47
2019-01-18T21:31:16.072Z,3.93
2019-01-18T21:34:35.858Z,4.17
2019-01-18T21:38:18.462Z,4.30
2019-01-18T21:41:14.061Z,3.93
2019-01-18T21:45:03.958Z,4.40
2019-01-18T21:48:23.526Z,4.80
2019-01-18T21:52:02.926Z,4.23
2019-01-18T21:55:47.305Z,4.77
2019-01-18T21:59:02.352Z,5.27
2019-01-18T22:02:49.342Z,5.00
2019-01-18T22:06:14.710Z,5.03
2019-01-18T22:09:34.457Z,5.17
2019-01-18T22:14:12.920Z,4.87
2019-01-18T22:16:56.083Z,4.90
2019-01-18T22:20:21.962Z,5.13
2019-01-18T22:23:58.789Z,4.87
2019-01-18T22:27:28.409Z,4.37
2019-01-18T22:31:12.060Z,6.10
2019-01-18T22:34:35.516Z,4.87
2019-01-18T22:37:52.785Z,5.00
2019-01-18T22:42:22.668Z,4.73
2019-01-18T22:45:41.787Z,4.80
2019-01-18T22:49:04.523Z,5.00
2019-01-18T22:52:37.520Z,5.13
2019-01-18T22:56:13.272Z,5.93
2019-01-18T22:59:43.058Z,5.37
2019-01-18T23:07:15.082Z,5.23
2019-01-18T23:10:24.968Z,5.40
2019-01-18T23:13:38.236Z,4.67
2019-01-18T23:17:30.887Z,5.37
2019-01-18T23:21:19.535Z,5.40
2019-01-18T23:24:42.051Z,5.43
2019-01-18T23:28:20.540Z,4.87
2019-01-18T23:31:16.055Z,5.70
2019-01-18T23:34:51.685Z,5.43
2019-01-18T23:38:15.116Z,5.47
2019-01-18T23:41:29.054Z,5.97
2019-01-18T23:44:47.607Z,5.77
2019-01-18T23:48:06.630Z,5.53
2019-01-18T23:51:32.338Z,5.13
2019-01-18T23:54:53.360Z,5.53
2019-01-18T23:58:15.272Z,5.53
